createdAt,value
2019-04-29T00:02:22.610Z,5.70
2019-04-29T00:04:50.012Z,6.17
2019-04-29T00:07:18.265Z,7.65
2019-04-29T00:09:49.922Z,7.67
2019-04-29T00:12:18.478Z,7.60
2019-04-29T00:15:07.526Z,7.30
2019-04-29T00:17:58.074Z,7.83
2019-04-29T00:20:40.977Z,8.10
2019-04-29T00:23:09.457Z,8.45
2019-04-29T00:25:37.874Z,8.35
2019-04-29T00:28:06.217Z,7.78
2019-04-29T00:30:34.411Z,7.55
2019-04-29T00:33:01.592Z,7.80
2019-04-29T00:35:28.786Z,7.10
2019-04-29T00:38:27.579Z,7.67
2019-04-29T00:41:09.122Z,7.30
2019-04-29T00:43:47.723Z,8.05
2019-04-29T00:46:16.193Z,7.92
2019-04-29T00:48:46.204Z,7.67
2019-04-29T00:51:14.799Z,8.48
2019-04-29T00:53:43.751Z,8.20
2019-04-29T00:56:11.906Z,7.50
2019-04-29T00:58:40.026Z,7.70
2019-04-29T01:01:12.013Z,8.50
2019-04-29T01:03:41.176Z,7.50
2019-04-29T01:06:08.367Z,7.75
2019-04-29T01:08:36.298Z,8.20
2019-04-29T01:11:04.569Z,8.05
2019-04-29T01:13:32.747Z,8.45
2019-04-29T01:16:01.303Z,8.33
2019-04-29T01:18:32.842Z,7.67
2019-04-29T01:21:01.242Z,7.15
2019-04-29T01:23:29.446Z,7.50
2019-04-29T01:26:01.302Z,7.37
2019-04-29T01:28:36.511Z,8.85
2019-04-29T01:31:26.363Z,8.33
2019-04-29T01:33:59.322Z,7.62
2019-04-29T01:36:35.095Z,8.10
2019-04-29T01:39:05.869Z,7.55
2019-04-29T01:41:43.524Z,7.22
2019-04-29T01:44:10.779Z,7.62
2019-04-29T01:46:38.199Z,8.03
2019-04-29T01:49:06.396Z,8.35
2019-04-29T01:51:35.006Z,9.00
2019-04-29T01:54:06.215Z,8.73
2019-04-29T01:56:34.408Z,8.15
2019-04-29T01:59:03.379Z,9.18
2019-04-29T02:01:32.395Z,8.28
2019-04-29T02:04:01.168Z,8.43
2019-04-29T02:06:29.869Z,8.60
2019-04-29T02:08:58.331Z,8.50
2019-04-29T02:11:27.090Z,8.35
2019-04-29T02:13:54.570Z,9.40
2019-04-29T02:16:23.275Z,8.65
2019-04-29T02:18:51.462Z,8.60
2019-04-29T02:21:19.977Z,8.78
2019-04-29T02:24:03.261Z,8.00
2019-04-29T02:26:32.167Z,8.85
2019-04-29T02:29:00.953Z,7.65
2019-04-29T02:31:46.090Z,8.38
2019-04-29T02:34:13.447Z,8.18
2019-04-29T02:36:42.173Z,8.25
2019-04-29T02:39:27.804Z,8.40
2019-04-29T02:42:17.634Z,7.70
2019-04-29T02:44:49.548Z,7.78
2019-04-29T02:47:17.723Z,6.67
2019-04-29T02:49:45.792Z,7.50
2019-04-29T02:52:18.468Z,7.72
2019-04-29T02:54:47.195Z,7.60
2019-04-29T02:57:30.749Z,7.80
2019-04-29T03:00:08.219Z,8.08
2019-04-29T03:02:44.979Z,8.13
2019-04-29T03:05:15.929Z,8.45
2019-04-29T03:07:44.350Z,8.48
2019-04-29T03:10:12.874Z,8.05
2019-04-29T03:12:41.316Z,9.10
2019-04-29T03:15:09.993Z,9.15
2019-04-29T03:17:38.102Z,8.90
2019-04-29T03:20:18.308Z,8.88
2019-04-29T03:22:46.693Z,8.40
2019-04-29T03:25:14.867Z,8.90
2019-04-29T03:27:42.076Z,9.10
2019-04-29T03:30:09.436Z,10.25
2019-04-29T03:32:36.880Z,9.80
2019-04-29T03:35:04.370Z,9.95
2019-04-29T03:37:32.535Z,10.05
2019-04-29T03:40:00.908Z,10.45
2019-04-29T03:42:29.145Z,9.65
2019-04-29T03:44:57.422Z,9.80
2019-04-29T03:47:25.478Z,9.85
2019-04-29T03:49:53.692Z,9.93
2019-04-29T03:52:21.757Z,9.93
2019-04-29T03:54:50.046Z,9.75
2019-04-29T03:57:18.744Z,11.08
2019-04-29T03:59:46.651Z,9.90
2019-04-29T04:02:25.754Z,9.80
2019-04-29T04:05:54.165Z,10.80
2019-04-29T04:08:32.829Z,10.70
2019-04-29T04:11:01.518Z,9.80
2019-04-29T04:13:30.463Z,11.65
2019-04-29T04:15:59.134Z,11.70
2019-04-29T04:18:29.687Z,9.93
2019-04-29T04:20:58.357Z,10.18
2019-04-29T04:23:27.401Z,11.45
2019-04-29T04:25:56.026Z,10.82
2019-04-29T04:28:23.485Z,10.18
2019-04-29T04:30:50.572Z,11.30
2019-04-29T04:33:17.773Z,9.95
2019-04-29T04:35:46.578Z,10.78
2019-04-29T04:38:15.059Z,10.20
2019-04-29T04:41:03.478Z,9.78
2019-04-29T04:43:32.194Z,9.63
2019-04-29T04:46:00.979Z,9.53
2019-04-29T04:48:29.849Z,10.28
2019-04-29T04:51:00.689Z,10.32
2019-04-29T04:53:28.971Z,9.45
2019-04-29T04:55:59.316Z,9.43
2019-04-29T04:58:27.788Z,10.13
2019-04-29T05:00:58.120Z,10.23
2019-04-29T05:03:26.801Z,9.18
2019-04-29T05:05:54.464Z,9.43
2019-04-29T05:08:22.227Z,10.30
2019-04-29T05:10:49.791Z,9.53
2019-04-29T05:13:27.909Z,10.10
2019-04-29T05:15:47.249Z,9.30
2019-04-29T05:18:16.142Z,9.45
2019-04-29T05:20:44.233Z,10.20
2019-04-29T05:23:15.122Z,9.35
2019-04-29T05:25:43.273Z,10.80
2019-04-29T05:28:12.349Z,11.08
2019-04-29T05:30:41.364Z,11.60
2019-04-29T05:33:10.117Z,10.30
2019-04-29T05:36:03.730Z,12.37
2019-04-29T05:38:36.466Z,10.15
2019-04-29T05:41:03.633Z,10.58
2019-04-29T05:43:42.730Z,12.28
2019-04-29T05:46:45.549Z,11.97
2019-04-29T05:49:17.011Z,11.30
2019-04-29T05:52:08.413Z,12.13
2019-04-29T05:54:36.474Z,12.68
2019-04-29T05:57:04.627Z,11.50
2019-04-29T05:59:32.913Z,12.80
2019-04-29T06:02:00.862Z,12.23
2019-04-29T06:04:28.760Z,12.75
2019-04-29T06:06:56.105Z,13.15
2019-04-29T06:09:23.081Z,12.55
2019-04-29T06:11:50.167Z,11.53
2019-04-29T06:14:18.286Z,13.35
2019-04-29T06:16:46.699Z,13.18
2019-04-29T06:19:14.703Z,13.62
2019-04-29T06:21:43.397Z,12.33
2019-04-29T06:24:12.409Z,12.80
2019-04-29T06:26:43.482Z,12.33
2019-04-29T06:29:11.176Z,13.08
2019-04-29T06:31:39.326Z,12.85
2019-04-29T06:34:06.697Z,13.00
2019-04-29T06:36:35.088Z,15.03
2019-04-29T06:39:05.011Z,13.93
2019-04-29T06:41:33.194Z,15.45
2019-04-29T06:44:06.666Z,15.70
2019-04-29T06:46:31.930Z,16.82
2019-04-29T06:49:09.909Z,16.90
2019-04-29T06:51:30.858Z,17.20
2019-04-29T06:53:58.959Z,18.27
2019-04-29T06:56:27.531Z,18.07
2019-04-29T06:58:55.647Z,17.85
2019-04-29T07:01:22.771Z,18.20
2019-04-29T07:03:49.926Z,18.32
2019-04-29T07:06:16.932Z,17.32
2019-04-29T07:08:44.056Z,18.57
2019-04-29T07:11:12.368Z,20.77
2019-04-29T07:13:40.494Z,19.42
2019-04-29T07:16:08.570Z,19.45
2019-04-29T07:18:40.332Z,21.15
2019-04-29T07:21:11.899Z,20.90
2019-04-29T07:23:39.561Z,20.82
2019-04-29T07:26:10.983Z,19.70
2019-04-29T07:28:39.058Z,20.10
2019-04-29T07:31:10.002Z,21.33
2019-04-29T07:33:36.247Z,19.45
2019-04-29T07:36:10.799Z,19.27
2019-04-29T07:38:41.761Z,17.42
2019-04-29T07:41:09.904Z,16.50
2019-04-29T07:43:44.260Z,15.77
2019-04-29T07:46:27.258Z,14.10
2019-04-29T07:49:01.668Z,14.57
2019-04-29T07:51:28.743Z,14.27
2019-04-29T07:53:56.927Z,13.30
2019-04-29T07:56:25.093Z,15.20
2019-04-29T07:58:53.269Z,14.63
2019-04-29T08:01:24.421Z,14.73
2019-04-29T08:03:53.005Z,14.90
2019-04-29T08:06:20.460Z,15.40
2019-04-29T08:08:55.079Z,14.13
2019-04-29T08:11:18.661Z,15.40
2019-04-29T08:13:48.046Z,15.00
2019-04-29T08:16:17.251Z,15.77
2019-04-29T08:18:53.409Z,15.00
2019-04-29T08:21:20.313Z,15.80
2019-04-29T08:23:48.352Z,15.77
2019-04-29T08:26:18.626Z,16.50
2019-04-29T08:28:47.079Z,16.60
2019-04-29T08:31:16.655Z,16.57
2019-04-29T08:33:46.814Z,16.90
2019-04-29T08:36:13.167Z,16.37
2019-04-29T08:38:41.760Z,15.93
2019-04-29T08:41:10.271Z,16.37
2019-04-29T08:44:15.644Z,17.43
2019-04-29T08:46:44.452Z,16.73
2019-04-29T08:49:18.996Z,17.77
2019-04-29T08:51:47.094Z,18.20
2019-04-29T08:54:15.970Z,18.30
2019-04-29T08:57:01.751Z,18.50
2019-04-29T08:59:15.041Z,17.17
2019-04-29T09:01:43.967Z,17.40
2019-04-29T09:04:14.462Z,16.93
2019-04-29T09:06:41.426Z,18.50
2019-04-29T09:09:27.948Z,18.30
2019-04-29T09:11:47.970Z,19.03
2019-04-29T09:14:16.107Z,18.70
2019-04-29T09:16:44.262Z,17.50
2019-04-29T09:19:12.522Z,17.13
2019-04-29T09:21:43.249Z,16.03
2019-04-29T09:24:12.778Z,17.20
2019-04-29T09:26:47.274Z,17.67
2019-04-29T09:29:33.045Z,15.97
2019-04-29T09:32:00.271Z,16.53
2019-04-29T09:34:27.433Z,15.30
2019-04-29T09:36:54.392Z,16.13
2019-04-29T09:39:22.761Z,15.83
2019-04-29T09:42:12.942Z,16.80
2019-04-29T09:44:59.830Z,17.40
2019-04-29T09:47:28.590Z,12.63
2019-04-29T09:49:56.674Z,12.50
2019-04-29T09:52:24.730Z,12.33
2019-04-29T09:54:52.805Z,10.70
2019-04-29T09:57:20.909Z,9.90
2019-04-29T10:00:00.156Z,10.47
2019-04-29T10:02:33.079Z,9.73
2019-04-29T10:05:19.950Z,9.20
2019-04-29T10:07:48.540Z,8.67
2019-04-29T10:10:17.366Z,8.70
2019-04-29T10:12:50.046Z,9.10
2019-04-29T10:15:21.699Z,9.73
2019-04-29T10:18:08.327Z,9.70
2019-04-29T10:20:45.031Z,8.60
2019-04-29T10:23:13.686Z,7.73
2019-04-29T10:25:41.854Z,7.37
2019-04-29T10:28:10.926Z,7.93
2019-04-29T10:30:38.506Z,7.20
2019-04-29T10:33:05.971Z,8.13
2019-04-29T10:35:34.439Z,7.40
2019-04-29T10:38:04.113Z,7.30
2019-04-29T10:41:02.428Z,7.20
2019-04-29T10:43:53.599Z,7.97
2019-04-29T10:46:38.964Z,7.87
2019-04-29T10:49:26.868Z,8.20
2019-04-29T10:51:58.148Z,9.13
2019-04-29T10:54:27.523Z,8.17
2019-04-29T10:56:56.095Z,8.40
2019-04-29T10:59:35.902Z,8.80
2019-04-29T11:02:30.278Z,8.10
2019-04-29T11:05:14.050Z,8.13
2019-04-29T11:07:47.286Z,7.67
2019-04-29T11:10:25.665Z,7.07
2019-04-29T11:12:53.407Z,8.33
2019-04-29T11:15:30.581Z,7.10
2019-04-29T11:18:03.070Z,7.87
2019-04-29T11:20:29.414Z,8.70
2019-04-29T11:23:24.365Z,8.00
2019-04-29T11:26:15.137Z,8.17
2019-04-29T11:28:46.958Z,8.10
2019-04-29T11:31:18.894Z,7.43
2019-04-29T11:34:05.356Z,7.83
2019-04-29T11:36:34.950Z,8.00
2019-04-29T11:39:09.101Z,7.50
2019-04-29T11:41:39.989Z,8.00
2019-04-29T11:44:08.288Z,7.50
2019-04-29T11:46:36.837Z,8.10
2019-04-29T11:49:06.038Z,8.00
2019-04-29T11:52:07.711Z,7.87
2019-04-29T11:54:18.192Z,9.03
2019-04-29T11:56:45.319Z,8.47
2019-04-29T11:59:37.316Z,7.97
2019-04-29T12:02:44.614Z,7.60
2019-04-29T12:05:31.620Z,7.80
2019-04-29T12:07:58.800Z,7.53
2019-04-29T12:10:27.316Z,8.40
2019-04-29T12:13:01.247Z,7.97
2019-04-29T12:15:40.977Z,7.67
2019-04-29T12:18:17.646Z,8.00
2019-04-29T12:21:17.613Z,7.90
2019-04-29T12:23:47.761Z,7.33
2019-04-29T12:26:15.766Z,7.30
2019-04-29T12:28:44.451Z,7.60
2019-04-29T12:31:21.598Z,7.20
2019-04-29T12:33:55.467Z,6.03
2019-04-29T12:36:23.611Z,6.60
2019-04-29T12:39:07.465Z,6.40
2019-04-29T12:42:05.738Z,6.10
2019-04-29T12:44:44.466Z,5.57
2019-04-29T12:47:26.191Z,4.87
2019-04-29T12:49:46.612Z,6.07
2019-04-29T12:52:16.306Z,5.30
2019-04-29T12:54:45.997Z,5.30
2019-04-29T12:57:18.816Z,5.60
2019-04-29T12:59:48.623Z,5.53
2019-04-29T13:02:39.954Z,5.10
2019-04-29T13:05:13.754Z,6.03
2019-04-29T13:08:01.129Z,5.73
2019-04-29T13:10:42.549Z,5.03
2019-04-29T13:13:15.818Z,4.60
2019-04-29T13:16:03.729Z,4.90
2019-04-29T13:18:48.947Z,5.13
2019-04-29T13:21:17.754Z,5.50
2019-04-29T13:23:59.073Z,5.50
2019-04-29T13:26:27.398Z,5.43
2019-04-29T13:28:59.302Z,5.10
2019-04-29T13:31:20.016Z,4.43
2019-04-29T13:33:50.884Z,5.00
2019-04-29T13:36:19.731Z,4.30
2019-04-29T13:38:49.355Z,4.77
2019-04-29T13:41:23.630Z,4.33
2019-04-29T13:43:51.206Z,4.10
2019-04-29T13:46:41.846Z,3.93
2019-04-29T13:49:18.793Z,3.73
2019-04-29T13:51:50.398Z,4.00
2019-04-29T13:54:19.335Z,3.83
2019-04-29T13:56:56.092Z,4.23
2019-04-29T13:59:27.831Z,4.13
2019-04-29T14:02:22.222Z,4.70
2019-04-29T14:04:55.893Z,3.73
2019-04-29T14:07:25.216Z,3.87
2019-04-29T14:09:53.878Z,3.57
2019-04-29T14:12:47.834Z,3.83
2019-04-29T14:14:53.895Z,3.80
2019-04-29T14:17:26.360Z,3.93
2019-04-29T14:19:52.058Z,3.50
2019-04-29T14:22:22.852Z,3.90
2019-04-29T14:24:51.066Z,3.40
2019-04-29T14:27:25.132Z,3.90
2019-04-29T14:29:51.445Z,4.00
2019-04-29T14:32:18.778Z,3.80
2019-04-29T14:35:07.097Z,3.40
2019-04-29T14:37:35.456Z,3.93
2019-04-29T14:40:07.350Z,3.53
2019-04-29T14:42:39.158Z,3.83
2019-04-29T14:45:31.091Z,3.50
2019-04-29T14:48:17.383Z,4.37
2019-04-29T14:50:49.612Z,4.20
2019-04-29T14:53:19.526Z,3.90
2019-04-29T14:55:46.827Z,3.70
2019-04-29T14:58:15.058Z,3.90
2019-04-29T15:01:09.594Z,3.83
2019-04-29T15:04:17.827Z,3.80
2019-04-29T15:06:39.395Z,4.33
2019-04-29T15:09:16.888Z,3.43
2019-04-29T15:11:48.895Z,4.17
2019-04-29T15:14:47.489Z,3.20
2019-04-29T15:17:44.831Z,3.93
2019-04-29T15:20:36.844Z,4.30
2019-04-29T15:23:05.284Z,4.13
2019-04-29T15:25:32.419Z,4.50
2019-04-29T15:27:59.600Z,4.70
2019-04-29T15:30:26.791Z,4.40
2019-04-29T15:32:58.085Z,4.90
2019-04-29T15:35:25.530Z,4.10
2019-04-29T15:37:53.939Z,4.73
2019-04-29T15:40:26.305Z,4.40
2019-04-29T15:42:53.513Z,5.47
2019-04-29T15:45:23.160Z,4.23
2019-04-29T15:47:51.692Z,4.70
2019-04-29T15:50:20.732Z,4.97
2019-04-29T15:52:47.739Z,5.30
2019-04-29T15:55:14.927Z,4.93
2019-04-29T15:57:49.528Z,5.33
2019-04-29T16:00:21.351Z,4.00
2019-04-29T16:02:43.811Z,5.50
2019-04-29T16:05:30.340Z,5.73
2019-04-29T16:08:29.223Z,5.50
2019-04-29T16:11:15.901Z,5.20
2019-04-29T16:13:48.177Z,5.30
2019-04-29T16:16:15.395Z,6.30
2019-04-29T16:18:43.399Z,6.13
2019-04-29T16:21:10.771Z,5.90
2019-04-29T16:23:40.275Z,6.47
2019-04-29T16:26:09.149Z,6.97
2019-04-29T16:28:40.190Z,6.10
2019-04-29T16:33:39.404Z,7.20
2019-04-29T16:36:07.995Z,6.80
2019-04-29T16:38:36.710Z,7.47
2019-04-29T16:41:24.968Z,6.57
2019-04-29T16:43:56.905Z,6.90
2019-04-29T16:46:35.345Z,7.40
2019-04-29T16:48:59.082Z,7.07
2019-04-29T16:51:26.738Z,7.00
2019-04-29T16:53:54.087Z,7.47
2019-04-29T16:56:26.423Z,7.50
2019-04-29T16:58:56.689Z,7.63
2019-04-29T17:01:24.944Z,7.60
2019-04-29T17:03:55.855Z,7.63
2019-04-29T17:06:24.392Z,8.83
2019-04-29T17:09:23.005Z,7.60
2019-04-29T17:11:50.435Z,8.77
2019-04-29T17:14:19.262Z,8.60
2019-04-29T17:16:48.582Z,8.07
2019-04-29T17:19:16.583Z,8.67
2019-04-29T17:21:44.362Z,7.70
2019-04-29T17:24:12.022Z,8.83
2019-04-29T17:26:55.294Z,8.33
2019-04-29T17:29:42.300Z,8.47
2019-04-29T17:32:42.291Z,9.00
2019-04-29T17:35:00.670Z,8.67
2019-04-29T17:35:16.699Z,6.60
2019-04-29T17:37:29.141Z,9.53
2019-04-29T17:39:57.390Z,8.40
2019-04-29T17:42:28.213Z,9.10
2019-04-29T17:45:10.033Z,9.13
2019-04-29T17:47:47.305Z,8.27
2019-04-29T17:50:29.439Z,8.80
2019-04-29T17:52:50.195Z,9.00
2019-04-29T17:55:40.864Z,9.40
2019-04-29T17:58:12.265Z,9.10
2019-04-29T18:00:59.261Z,9.13
2019-04-29T18:03:50.994Z,9.00
2019-04-29T18:06:32.556Z,10.53
2019-04-29T18:09:30.318Z,9.80
2019-04-29T18:12:08.543Z,10.73
2019-04-29T18:14:41.619Z,10.17
2019-04-29T18:17:08.078Z,9.47
2019-04-29T18:20:02.351Z,10.40
2019-04-29T18:23:06.377Z,10.50
2019-04-29T18:25:54.835Z,11.00
2019-04-29T18:28:23.437Z,10.87
2019-04-29T18:30:54.446Z,11.13
2019-04-29T18:33:23.388Z,11.20
2019-04-29T18:36:01.244Z,12.57
2019-04-29T18:38:21.397Z,12.10
2019-04-29T18:40:49.603Z,12.07
2019-04-29T18:43:19.223Z,13.27
2019-04-29T18:45:56.273Z,12.70
2019-04-29T18:48:21.744Z,11.47
2019-04-29T18:50:50.052Z,13.03
2019-04-29T18:53:18.518Z,12.45
2019-04-29T18:55:50.842Z,12.30
2019-04-29T18:58:19.519Z,13.00
2019-04-29T19:00:52.430Z,13.07
2019-04-29T19:03:25.252Z,13.00
2019-04-29T19:05:56.778Z,13.13
2019-04-29T19:08:28.650Z,13.62
2019-04-29T19:10:56.454Z,14.53
2019-04-29T19:13:25.802Z,14.03
2019-04-29T19:16:02.883Z,14.10
2019-04-29T19:18:25.344Z,13.10
2019-04-29T19:20:56.994Z,14.33
2019-04-29T19:23:29.455Z,13.90
2019-04-29T19:25:58.349Z,14.77
2019-04-29T19:28:30.935Z,13.53
2019-04-29T19:31:03.172Z,12.73
2019-04-29T19:33:30.804Z,14.45
2019-04-29T19:35:59.788Z,13.63
2019-04-29T19:38:28.210Z,12.30
2019-04-29T19:40:56.882Z,12.07
2019-04-29T19:43:25.742Z,11.27
2019-04-29T19:45:54.967Z,11.30
2019-04-29T19:48:22.539Z,9.88
2019-04-29T19:51:13.611Z,10.67
2019-04-29T19:53:21.674Z,9.30
2019-04-29T19:56:01.431Z,10.43
2019-04-29T19:58:28.377Z,10.03
2019-04-29T20:00:50.994Z,10.90
2019-04-29T20:03:23.833Z,10.40
2019-04-29T20:06:08.180Z,11.22
2019-04-29T20:08:49.817Z,10.50
2019-04-29T20:11:11.398Z,10.73
2019-04-29T20:13:31.896Z,9.43
2019-04-29T20:16:22.761Z,10.58
2019-04-29T20:19:01.559Z,12.40
2019-04-29T20:21:31.825Z,12.00
2019-04-29T20:24:00.579Z,12.05
2019-04-29T20:26:31.923Z,11.28
2019-04-29T20:29:00.477Z,12.07
2019-04-29T20:31:34.880Z,12.13
2019-04-29T20:34:02.632Z,12.10
2019-04-29T20:36:39.448Z,11.83
2019-04-29T20:38:58.905Z,12.53
2019-04-29T20:41:40.195Z,11.63
2019-04-29T20:43:56.264Z,11.85
2019-04-29T20:46:30.137Z,11.40
2019-04-29T20:48:58.625Z,11.28
2019-04-29T20:51:28.490Z,11.78
2019-04-29T20:54:04.251Z,11.90
2019-04-29T20:56:35.132Z,12.07
2019-04-29T20:59:09.012Z,11.48
2019-04-29T21:01:42.939Z,12.78
2019-04-29T21:04:05.821Z,14.47
2019-04-29T21:06:39.203Z,13.45
2019-04-29T21:09:06.219Z,13.88
2019-04-29T21:11:42.951Z,13.90
2019-04-29T21:14:18.340Z,14.33
2019-04-29T21:16:48.814Z,13.78
2019-04-29T21:19:18.246Z,14.07
2019-04-29T21:21:47.533Z,15.03
2019-04-29T21:24:18.598Z,15.08
2019-04-29T21:26:46.612Z,15.63
2019-04-29T21:29:19.253Z,15.75
2019-04-29T21:31:46.078Z,15.00
2019-04-29T21:34:17.461Z,15.85
2019-04-29T21:37:11.533Z,15.18
2019-04-29T21:39:51.410Z,16.30
2019-04-29T21:42:38.161Z,14.55
2019-04-29T21:45:08.629Z,14.25
2019-04-29T21:47:42.693Z,15.90
2019-04-29T21:50:08.434Z,15.08
2019-04-29T21:52:42.462Z,14.03
2019-04-29T21:55:11.135Z,14.33
2019-04-29T21:57:39.075Z,15.28
2019-04-29T22:00:08.689Z,15.18
2019-04-29T22:02:36.306Z,14.95
2019-04-29T22:05:05.184Z,15.50
2019-04-29T22:07:32.933Z,15.00
2019-04-29T22:10:01.765Z,15.63
2019-04-29T22:12:30.334Z,15.20
2019-04-29T22:14:59.559Z,15.38
2019-04-29T22:17:32.806Z,16.00
2019-04-29T22:20:03.952Z,16.15
2019-04-29T22:22:30.746Z,17.05
2019-04-29T22:25:06.018Z,16.67
2019-04-29T22:27:34.085Z,16.40
2019-04-29T22:29:59.542Z,16.85
2019-04-29T22:32:27.474Z,16.50
2019-04-29T22:35:01.200Z,17.45
2019-04-29T22:37:29.812Z,16.97
2019-04-29T22:39:58.725Z,16.40
2019-04-29T22:42:39.837Z,18.10
2019-04-29T22:45:08.435Z,17.17
2019-04-29T22:47:36.066Z,17.82
2019-04-29T22:50:04.563Z,17.40
2019-04-29T22:52:32.002Z,17.50
2019-04-29T22:55:01.858Z,17.42
2019-04-29T22:57:31.777Z,18.65
2019-04-29T23:00:00.257Z,17.98
2019-04-29T23:02:29.027Z,18.62
2019-04-29T23:04:57.718Z,19.10
2019-04-29T23:07:26.434Z,16.50
2019-04-29T23:09:55.505Z,17.43
2019-04-29T23:12:32.629Z,17.97
2019-04-29T23:15:01.678Z,18.45
2019-04-29T23:17:29.206Z,17.25
2019-04-29T23:20:02.874Z,19.07
2019-04-29T23:22:46.150Z,18.90
2019-04-29T23:25:21.774Z,18.85
2019-04-29T23:27:52.548Z,18.42
2019-04-29T23:30:27.265Z,18.05
2019-04-29T23:32:56.103Z,19.98
2019-04-29T23:35:25.098Z,19.35
2019-04-29T23:37:57.291Z,19.55
2019-04-29T23:40:23.850Z,18.82
2019-04-29T23:42:52.229Z,20.95
2019-04-29T23:45:21.460Z,20.70
2019-04-29T23:47:50.553Z,21.77
2019-04-29T23:50:18.752Z,22.17
2019-04-29T23:52:47.898Z,21.97
2019-04-29T23:55:15.945Z,23.18
2019-04-29T23:58:09.766Z,23.38
